createdAt,value
2016-09-22T00:00:09.969Z,1022.11
2016-09-22T00:01:11.449Z,1022.11
2016-09-22T00:02:12.668Z,1022.08
2016-09-22T00:03:13.366Z,1022.13
2016-09-22T00:04:14.071Z,1022.09
2016-09-22T00:05:15.053Z,1022.14
2016-09-22T00:06:15.735Z,1022.13
2016-09-22T00:07:16.433Z,1022.12
2016-09-22T00:08:17.122Z,1022.11
2016-09-22T00:09:17.826Z,1022.14
2016-09-22T00:10:19.241Z,1022.16
2016-09-22T00:11:19.918Z,1022.13
2016-09-22T00:12:20.863Z,1022.11
2016-09-22T00:13:21.683Z,1022.11
2016-09-22T00:14:22.403Z,1022.1
2016-09-22T00:15:23.441Z,1022.09
2016-09-22T00:16:24.199Z,1022.08
2016-09-22T00:17:24.946Z,1022.09
2016-09-22T00:18:25.844Z,1022.06
2016-09-22T00:19:26.467Z,1022.04
2016-09-22T00:20:27.186Z,1022.06
2016-09-22T00:21:28.044Z,1022.04
2016-09-22T00:22:29.018Z,1022.05
2016-09-22T00:23:29.876Z,1022.04
2016-09-22T00:24:30.616Z,1022.05
2016-09-22T00:25:31.354Z,1022.02
2016-09-22T00:26:32.095Z,1022.02
2016-09-22T00:27:32.852Z,1022.03
2016-09-22T00:28:33.548Z,1022.02
2016-09-22T00:29:34.352Z,1022.03
2016-09-22T00:30:35.041Z,1021.99
2016-09-22T00:31:35.731Z,1021.99
2016-09-22T00:32:36.420Z,1021.97
2016-09-22T00:33:37.106Z,1022
2016-09-22T00:34:37.804Z,1022.02
2016-09-22T00:35:38.656Z,1021.96
2016-09-22T00:36:39.379Z,1021.99
2016-09-22T00:37:40.066Z,1021.98
2016-09-22T00:38:40.787Z,1022
2016-09-22T00:39:42.473Z,1022.01
2016-09-22T00:40:44.050Z,1022
2016-09-22T00:41:45.196Z,1022
2016-09-22T00:42:46.098Z,1022
2016-09-22T00:43:46.887Z,1021.98
2016-09-22T00:44:47.689Z,1022.01
2016-09-22T00:45:48.494Z,1022
2016-09-22T00:46:49.208Z,1021.98
2016-09-22T00:47:50.107Z,1022
2016-09-22T00:48:52.168Z,1021.94
2016-09-22T00:49:53.324Z,1021.93
2016-09-22T00:50:54.339Z,1021.9
2016-09-22T00:51:55.422Z,1021.93
2016-09-22T00:52:56.172Z,1021.91
2016-09-22T00:53:56.979Z,1021.93
2016-09-22T00:54:57.838Z,1021.91
2016-09-22T00:55:58.882Z,1021.93
2016-09-22T00:56:59.877Z,1021.91
2016-09-22T00:58:00.787Z,1021.89
2016-09-22T00:59:01.722Z,1021.9
2016-09-22T01:00:02.538Z,1021.89
2016-09-22T01:01:03.240Z,1021.86
2016-09-22T01:02:03.959Z,1021.86
2016-09-22T01:03:04.662Z,1021.88
2016-09-22T01:04:05.336Z,1021.84
2016-09-22T01:05:06.321Z,1021.85
2016-09-22T01:06:07.016Z,1021.85
2016-09-22T01:07:14.566Z,1021.86
2016-09-22T01:08:15.708Z,1021.8
2016-09-22T01:09:16.772Z,1021.81
2016-09-22T01:10:17.916Z,1021.8
2016-09-22T01:11:18.775Z,1021.81
2016-09-22T01:12:19.616Z,1021.79
2016-09-22T01:13:20.411Z,1021.77
2016-09-22T01:14:21.105Z,1021.78
2016-09-22T01:15:21.821Z,1021.78
2016-09-22T01:16:22.655Z,1021.77
2016-09-22T01:17:23.413Z,1021.74
2016-09-22T01:18:24.156Z,1021.74
2016-09-22T01:19:24.955Z,1021.74
2016-09-22T01:20:25.676Z,1021.75
2016-09-22T01:21:26.450Z,1021.79
2016-09-22T01:22:27.195Z,1021.78
2016-09-22T01:23:27.921Z,1021.78
2016-09-22T01:24:28.657Z,1021.8
2016-09-22T01:25:29.479Z,1021.81
2016-09-22T01:26:30.201Z,1021.79
2016-09-22T01:27:30.884Z,1021.83
2016-09-22T01:28:31.763Z,1021.78
2016-09-22T01:29:32.526Z,1021.79
2016-09-22T01:30:33.231Z,1021.83
2016-09-22T01:31:33.915Z,1021.81
2016-09-22T01:32:34.631Z,1021.82
2016-09-22T01:33:35.310Z,1021.82
2016-09-22T01:34:35.989Z,1021.81
2016-09-22T01:35:36.665Z,1021.81
2016-09-22T01:36:37.355Z,1021.84
2016-09-22T01:37:38.047Z,1021.82
2016-09-22T01:38:38.732Z,1021.78
2016-09-22T01:39:39.409Z,1021.82
2016-09-22T01:40:40.126Z,1021.81
2016-09-22T01:41:40.818Z,1021.81
2016-09-22T01:42:41.526Z,1021.79
2016-09-22T01:43:42.190Z,1021.81
2016-09-22T01:44:42.875Z,1021.78
2016-09-22T01:45:43.572Z,1021.8
2016-09-22T01:46:44.261Z,1021.78
2016-09-22T01:47:44.941Z,1021.75
2016-09-22T01:48:45.620Z,1021.75
2016-09-22T01:49:46.317Z,1021.74
2016-09-22T01:50:47.006Z,1021.75
2016-09-22T01:51:47.697Z,1021.74
2016-09-22T01:52:48.404Z,1021.75
2016-09-22T01:53:49.101Z,1021.76
2016-09-22T01:54:49.788Z,1021.79
2016-09-22T01:55:50.476Z,1021.75
2016-09-22T01:56:51.168Z,1021.77
2016-09-22T01:57:51.852Z,1021.75
2016-09-22T01:58:52.535Z,1021.75
2016-09-22T01:59:53.242Z,1021.76
2016-09-22T02:00:53.945Z,1021.74
2016-09-22T02:01:54.635Z,1021.71
2016-09-22T02:02:55.311Z,1021.73
2016-09-22T02:03:55.993Z,1021.76
2016-09-22T02:04:56.674Z,1021.74
2016-09-22T02:05:57.360Z,1021.73
2016-09-22T02:06:58.046Z,1021.73
2016-09-22T02:07:58.762Z,1021.73
2016-09-22T02:08:59.434Z,1021.75
2016-09-22T02:10:00.129Z,1021.75
2016-09-22T02:11:00.829Z,1021.74
2016-09-22T02:12:01.512Z,1021.75
2016-09-22T02:13:02.223Z,1021.75
2016-09-22T02:14:02.963Z,1021.77
2016-09-22T02:15:03.646Z,1021.75
2016-09-22T02:16:04.321Z,1021.71
2016-09-22T02:17:05.014Z,1021.75
2016-09-22T02:18:05.704Z,1021.76
2016-09-22T02:19:06.391Z,1021.78
2016-09-22T02:20:07.064Z,1021.79
2016-09-22T02:21:07.756Z,1021.79
2016-09-22T02:22:08.446Z,1021.78
2016-09-22T02:23:09.139Z,1021.75
2016-09-22T02:24:09.823Z,1021.75
2016-09-22T02:25:10.494Z,1021.78
2016-09-22T02:26:11.168Z,1021.74
2016-09-22T02:27:11.843Z,1021.76
2016-09-22T02:28:12.513Z,1021.77
2016-09-22T02:29:13.205Z,1021.76
2016-09-22T02:30:13.907Z,1021.75
2016-09-22T02:31:14.618Z,1021.77
2016-09-22T02:32:15.300Z,1021.77
2016-09-22T02:33:15.982Z,1021.79
2016-09-22T02:34:16.670Z,1021.79
2016-09-22T02:35:17.395Z,1021.84
2016-09-22T02:36:18.100Z,1021.83
2016-09-22T02:37:18.805Z,1021.85
2016-09-22T02:38:19.492Z,1021.86
2016-09-22T02:39:20.165Z,1021.87
2016-09-22T02:40:20.864Z,1021.83
2016-09-22T02:41:21.582Z,1021.86
2016-09-22T02:42:22.272Z,1021.83
2016-09-22T02:43:22.959Z,1021.84
2016-09-22T02:44:23.677Z,1021.83
2016-09-22T02:45:24.353Z,1021.8
2016-09-22T02:46:25.074Z,1021.82
2016-09-22T02:47:25.764Z,1021.81
2016-09-22T02:48:26.449Z,1021.82
2016-09-22T02:49:27.153Z,1021.8
2016-09-22T02:50:27.873Z,1021.8
2016-09-22T02:51:28.550Z,1021.8
2016-09-22T02:52:29.297Z,1021.8
2016-09-22T02:53:29.992Z,1021.8
2016-09-22T02:54:30.682Z,1021.79
2016-09-22T02:55:31.371Z,1021.78
2016-09-22T02:56:32.067Z,1021.78
2016-09-22T02:57:32.765Z,1021.81
2016-09-22T02:58:33.457Z,1021.81
2016-09-22T02:59:34.150Z,1021.8
2016-09-22T03:00:34.839Z,1021.81
2016-09-22T03:01:35.525Z,1021.8
2016-09-22T03:02:36.215Z,1021.81
2016-09-22T03:03:36.940Z,1021.8
2016-09-22T03:04:37.620Z,1021.76
2016-09-22T03:05:38.335Z,1021.8
2016-09-22T03:06:39.041Z,1021.74
2016-09-22T03:07:39.777Z,1021.76
2016-09-22T03:08:40.458Z,1021.76
2016-09-22T03:09:41.132Z,1021.79
2016-09-22T03:10:41.849Z,1021.79
2016-09-22T03:11:42.561Z,1021.75
2016-09-22T03:12:43.251Z,1021.75
2016-09-22T03:13:43.927Z,1021.72
2016-09-22T03:14:44.615Z,1021.71
2016-09-22T03:15:45.337Z,1021.72
2016-09-22T03:16:46.023Z,1021.71
2016-09-22T03:17:46.732Z,1021.71
2016-09-22T03:18:47.433Z,1021.67
2016-09-22T03:19:48.111Z,1021.67
2016-09-22T03:20:48.799Z,1021.67
2016-09-22T03:21:49.479Z,1021.63
2016-09-22T03:22:50.155Z,1021.61
2016-09-22T03:23:50.830Z,1021.6
2016-09-22T03:24:51.547Z,1021.63
2016-09-22T03:25:52.226Z,1021.64
2016-09-22T03:26:52.913Z,1021.65
2016-09-22T03:27:53.593Z,1021.7
2016-09-22T03:28:54.291Z,1021.66
2016-09-22T03:29:54.981Z,1021.66
2016-09-22T03:30:55.674Z,1021.66
2016-09-22T03:31:56.392Z,1021.67
2016-09-22T03:32:57.086Z,1021.67
2016-09-22T03:33:57.771Z,1021.69
2016-09-22T03:34:58.448Z,1021.67
2016-09-22T03:35:59.123Z,1021.66
2016-09-22T03:36:59.838Z,1021.67
2016-09-22T03:38:00.514Z,1021.67
2016-09-22T03:39:01.197Z,1021.64
2016-09-22T03:40:01.881Z,1021.67
2016-09-22T03:41:02.619Z,1021.62
2016-09-22T03:42:03.324Z,1021.64
2016-09-22T03:43:04.019Z,1021.62
2016-09-22T03:44:04.707Z,1021.63
2016-09-22T03:45:05.412Z,1021.65
2016-09-22T03:46:06.147Z,1021.6
2016-09-22T03:47:06.859Z,1021.61
2016-09-22T03:48:07.584Z,1021.61
2016-09-22T03:49:08.260Z,1021.59
2016-09-22T03:50:08.943Z,1021.57
2016-09-22T03:51:09.636Z,1021.59
2016-09-22T03:52:10.356Z,1021.58
2016-09-22T03:53:11.045Z,1021.58
2016-09-22T03:54:11.729Z,1021.57
2016-09-22T03:55:12.421Z,1021.57
2016-09-22T03:56:13.098Z,1021.56
2016-09-22T03:57:13.789Z,1021.57
2016-09-22T03:58:14.490Z,1021.52
2016-09-22T03:59:15.181Z,1021.55
2016-09-22T04:00:15.873Z,1021.54
2016-09-22T04:01:16.566Z,1021.55
2016-09-22T04:02:17.249Z,1021.54
2016-09-22T04:03:17.951Z,1021.58
2016-09-22T04:04:18.650Z,1021.58
2016-09-22T04:05:19.350Z,1021.58
2016-09-22T04:06:20.039Z,1021.59
2016-09-22T04:07:20.731Z,1021.64
2016-09-22T04:08:21.423Z,1021.58
2016-09-22T04:09:22.101Z,1021.61
2016-09-22T04:10:22.782Z,1021.6
2016-09-22T04:11:23.462Z,1021.54
2016-09-22T04:12:24.154Z,1021.53
2016-09-22T04:13:24.833Z,1021.51
2016-09-22T04:14:25.521Z,1021.5
2016-09-22T04:15:26.219Z,1021.49
2016-09-22T04:16:26.906Z,1021.48
2016-09-22T04:17:27.592Z,1021.44
2016-09-22T04:18:28.302Z,1021.43
2016-09-22T04:19:29.030Z,1021.48
2016-09-22T04:20:29.717Z,1021.45
2016-09-22T04:21:30.412Z,1021.46
2016-09-22T04:22:31.107Z,1021.43
2016-09-22T04:23:31.809Z,1021.48
2016-09-22T04:24:32.483Z,1021.48
2016-09-22T04:25:33.158Z,1021.47
2016-09-22T04:26:33.841Z,1021.52
2016-09-22T04:27:34.536Z,1021.53
2016-09-22T04:28:35.225Z,1021.53
2016-09-22T04:29:35.909Z,1021.54
2016-09-22T04:30:36.603Z,1021.55
2016-09-22T04:31:37.289Z,1021.5
2016-09-22T04:32:37.969Z,1021.51
2016-09-22T04:33:38.649Z,1021.48
2016-09-22T04:34:39.340Z,1021.51
2016-09-22T04:35:40.039Z,1021.52
2016-09-22T04:36:40.719Z,1021.51
2016-09-22T04:37:41.408Z,1021.5
2016-09-22T04:38:42.094Z,1021.5
2016-09-22T04:39:42.780Z,1021.52
2016-09-22T04:40:43.456Z,1021.5
2016-09-22T04:41:44.147Z,1021.53
2016-09-22T04:42:44.873Z,1021.52
2016-09-22T04:43:45.626Z,1021.53
2016-09-22T04:44:46.308Z,1021.55
2016-09-22T04:45:47.001Z,1021.52
2016-09-22T04:46:47.681Z,1021.5
2016-09-22T04:47:48.356Z,1021.53
2016-09-22T04:48:49.048Z,1021.54
2016-09-22T04:49:49.740Z,1021.53
2016-09-22T04:50:50.470Z,1021.51
2016-09-22T04:51:51.185Z,1021.49
2016-09-22T04:52:51.877Z,1021.52
2016-09-22T04:53:52.561Z,1021.45
2016-09-22T04:54:53.250Z,1021.51
2016-09-22T04:55:53.931Z,1021.5
2016-09-22T04:56:54.611Z,1021.51
2016-09-22T04:57:55.308Z,1021.51
2016-09-22T04:58:56.008Z,1021.53
2016-09-22T04:59:56.687Z,1021.54
2016-09-22T05:00:57.372Z,1021.54
2016-09-22T05:01:58.064Z,1021.52
2016-09-22T05:02:58.782Z,1021.56
2016-09-22T05:03:59.471Z,1021.5
2016-09-22T05:05:00.182Z,1021.52
2016-09-22T05:06:00.884Z,1021.54
2016-09-22T05:07:01.567Z,1021.51
2016-09-22T05:08:02.254Z,1021.52
2016-09-22T05:09:02.954Z,1021.54
2016-09-22T05:10:03.644Z,1021.5
2016-09-22T05:11:04.327Z,1021.49
2016-09-22T05:12:05.025Z,1021.52
2016-09-22T05:13:05.713Z,1021.49
2016-09-22T05:14:06.391Z,1021.52
2016-09-22T05:15:07.077Z,1021.53
2016-09-22T05:16:07.757Z,1021.53
2016-09-22T05:17:08.441Z,1021.52
2016-09-22T05:18:09.148Z,1021.52
2016-09-22T05:19:09.835Z,1021.52
2016-09-22T05:20:10.527Z,1021.51
2016-09-22T05:21:11.236Z,1021.48
2016-09-22T05:22:11.933Z,1021.55
2016-09-22T05:23:12.630Z,1021.53
2016-09-22T05:24:13.319Z,1021.56
2016-09-22T05:25:13.998Z,1021.6
2016-09-22T05:26:14.714Z,1021.6
2016-09-22T05:27:15.399Z,1021.6
2016-09-22T05:28:16.077Z,1021.59
2016-09-22T05:29:16.766Z,1021.57
2016-09-22T05:30:17.482Z,1021.55
2016-09-22T05:31:18.175Z,1021.56
2016-09-22T05:32:18.864Z,1021.57
2016-09-22T05:33:19.575Z,1021.55
2016-09-22T05:34:20.285Z,1021.56
2016-09-22T05:35:20.986Z,1021.58
2016-09-22T05:36:21.685Z,1021.64
2016-09-22T05:37:22.384Z,1021.62
2016-09-22T05:38:23.111Z,1021.63
2016-09-22T05:39:23.829Z,1021.66
2016-09-22T05:40:24.527Z,1021.59
2016-09-22T05:41:25.248Z,1021.62
2016-09-22T05:42:25.975Z,1021.6
2016-09-22T05:43:26.726Z,1021.63
2016-09-22T05:44:27.443Z,1021.63
2016-09-22T05:45:28.132Z,1021.64
2016-09-22T05:46:28.858Z,1021.65
2016-09-22T05:47:29.615Z,1021.67
2016-09-22T05:48:30.360Z,1021.66
2016-09-22T05:49:31.071Z,1021.67
2016-09-22T05:50:31.802Z,1021.67
2016-09-22T05:51:32.518Z,1021.69
2016-09-22T05:52:33.302Z,1021.7
2016-09-22T05:53:34.021Z,1021.72
2016-09-22T05:54:34.724Z,1021.71
2016-09-22T05:55:35.477Z,1021.68
2016-09-22T05:56:36.240Z,1021.74
2016-09-22T05:57:37.112Z,1021.71
2016-09-22T05:58:38.023Z,1021.74
2016-09-22T05:59:38.748Z,1021.75
2016-09-22T06:00:39.453Z,1021.72
2016-09-22T06:01:40.172Z,1021.75
2016-09-22T06:02:40.918Z,1021.72
2016-09-22T06:03:41.608Z,1021.72
2016-09-22T06:04:42.318Z,1021.75
2016-09-22T06:05:43.009Z,1021.73
2016-09-22T06:06:43.727Z,1021.74
2016-09-22T06:07:44.414Z,1021.75
2016-09-22T06:08:45.129Z,1021.74
2016-09-22T06:09:45.831Z,1021.73
2016-09-22T06:10:46.525Z,1021.73
2016-09-22T06:11:47.215Z,1021.75
2016-09-22T06:12:47.924Z,1021.79
2016-09-22T06:13:48.627Z,1021.78
2016-09-22T06:14:49.320Z,1021.8
2016-09-22T06:15:50.022Z,1021.8
2016-09-22T06:16:50.762Z,1021.82
2016-09-22T06:17:51.476Z,1021.79
2016-09-22T06:18:52.164Z,1021.82
2016-09-22T06:19:52.858Z,1021.82
2016-09-22T06:20:53.599Z,1021.83
2016-09-22T06:21:54.267Z,1021.84
2016-09-22T06:22:54.969Z,1021.85
2016-09-22T06:23:55.727Z,1021.86
2016-09-22T06:24:56.435Z,1021.85
2016-09-22T06:25:57.114Z,1021.87
2016-09-22T06:26:57.812Z,1021.88
2016-09-22T06:27:58.514Z,1021.94
2016-09-22T06:28:59.241Z,1021.91
2016-09-22T06:29:59.947Z,1021.9
2016-09-22T06:31:01.152Z,1021.94
2016-09-22T06:32:01.862Z,1021.95
2016-09-22T06:33:03.209Z,1021.99
2016-09-22T06:34:03.933Z,1021.95
2016-09-22T06:35:05.013Z,1022
2016-09-22T06:36:05.720Z,1022.01
2016-09-22T06:37:06.417Z,1022.04
2016-09-22T06:38:07.307Z,1022.07
2016-09-22T06:39:08.003Z,1022.05
2016-09-22T06:40:08.691Z,1022.02
2016-09-22T06:41:09.406Z,1022.01
2016-09-22T06:42:10.098Z,1022.03
2016-09-22T06:43:10.821Z,1022.07
2016-09-22T06:44:11.544Z,1022.07
2016-09-22T06:45:12.267Z,1022.08
2016-09-22T06:46:12.963Z,1022.06
2016-09-22T06:47:13.651Z,1022.11
2016-09-22T06:48:14.341Z,1022.13
2016-09-22T06:49:15.019Z,1022.1
2016-09-22T06:50:15.739Z,1022.13
2016-09-22T06:51:16.430Z,1022.09
2016-09-22T06:52:17.126Z,1022.09
2016-09-22T06:53:17.839Z,1022.1
2016-09-22T06:54:18.525Z,1022.12
2016-09-22T06:55:19.218Z,1022.15
2016-09-22T06:56:19.924Z,1022.13
2016-09-22T06:57:20.712Z,1022.1
2016-09-22T06:58:21.705Z,1022.1
2016-09-22T06:59:23.797Z,1022.17
2016-09-22T07:00:24.512Z,1022.13
2016-09-22T07:01:25.797Z,1022.18
2016-09-22T07:02:26.737Z,1022.2
2016-09-22T07:03:27.433Z,1022.19
2016-09-22T07:04:28.775Z,1022.17
2016-09-22T07:05:30.499Z,1022.2
2016-09-22T07:06:31.782Z,1022.21
2016-09-22T07:07:32.600Z,1022.21
2016-09-22T07:08:33.311Z,1022.21
2016-09-22T07:09:34.016Z,1022.2
2016-09-22T07:10:34.749Z,1022.19
2016-09-22T07:11:35.450Z,1022.18
2016-09-22T07:12:36.142Z,1022.17
2016-09-22T07:13:36.851Z,1022.14
2016-09-22T07:14:37.558Z,1022.19
2016-09-22T07:15:38.237Z,1022.16
2016-09-22T07:16:38.980Z,1022.22
2016-09-22T07:17:39.674Z,1022.21
2016-09-22T07:18:40.374Z,1022.18
2016-09-22T07:19:41.512Z,1022.21
2016-09-22T07:20:42.209Z,1022.24
2016-09-22T07:21:42.975Z,1022.2
2016-09-22T07:22:43.681Z,1022.27
2016-09-22T07:23:44.378Z,1022.26
2016-09-22T07:24:45.435Z,1022.29
2016-09-22T07:25:46.454Z,1022.27
2016-09-22T07:26:48.102Z,1022.29
2016-09-22T07:27:49.526Z,1022.31
2016-09-22T07:28:50.408Z,1022.33
2016-09-22T07:29:53.034Z,1022.33
2016-09-22T07:30:53.743Z,1022.34
